Main page
METAR-TAF:

METAR-TAF

Airports :

Parma Airport

Parma, Italy

latitude: 44-49-17N, longitude: 010-17-41E, elevation: 50 m

Current weather observation

The report was made 39 minutes ago, at 12:50 UTC
Wind 6 kt from the East/Southeast, varying between East and Southeast
Temperature 20°C
Humidity 40%
Pressure 1019 hPa
Visibility 10 km or more
Few clouds at a height of 6000 ft

METAR: LIMP 211250Z 11006KT 080V140 9999 FEW060 20/06 Q1019

Time: 15:29 (13:29 UTC)

Forecast

The report was made 2 hours and 29 minutes ago, at 11:00 UTC
Forecast valid from 21 at 12 UTC to 22 at 12 UTC
Wind 10 kt from the East
Visibility 10 km or more
no clouds below 1500 m and no cumulonimbus

TAF: LIMP 211100Z 2112/2212 09010KT CAVOK

Weather observations and forecasts of more than 4000 airports (METAR and TAF reports).

The available stations are represented by yellow and red dots on the map.

Hover mouse over dot to see the name of the station.

Then click to see weather observations and forecasts.

To change the map : click on the green buttons with a black cross to zoom in, on the green button with a dash to zoom out, or on the green arrows for adjacent maps.


METAR-TAF: